Espace membre
Imprimable
Challenges > Delhalle - Butgenbach, 09/05/2021, BEL - Rund um den See - Virtuelle Ausgabe
Liste des rapports > Delhalle - Classement
Recherche: Page: [1]
139 Entrées
 
Les réclamations ne sont plus acceptées, les résultats sont considérés comme définitifs.
Catégorie
PosNrNomAgeIOCLigueEquipeRéelTempsTkmMoy.RangNomPtsLocalité
1.610GALERIN DENIS37BELRIWARONVAU1:16:311:16:313:13 18.711sen1108WAVRE
2.363MARCHAL GILLES32BELFLEUGAG-RUNATTITUDE1:18:391:18:393:18 18.202sen1079GEMBLOUX
3.165WIART YVES54BELLES PAHAUTS D'É1:24:171:24:173:32 16.991ve21012DURNAL
4.556RATINCKX JEAN PHILIPPE33BELRIWARIWA1:24:361:24:363:33 16.923sen1006OTTIGNIES
5.213DEMUYT RAPHAËL47FRACEPALCEPAL1:25:071:25:073:35 16.821ve1998BRUXELLES
6.129MARTINEAU PHILIPPE43FRAGAG1:25:281:25:283:35 16.752ve1992GEMBLOUX
7.492DERAVET BERNARD62BELLES PAHAUTS D'E1:27:141:27:143:40 16.411ve3970DURNAL
8.342LOMBART FRÉDÉRIC54BELFLEUGAG1:27:471:27:473:41 16.312ve2962SAUVENIÈRE
9.181GRELET RENAUD38FRACSFMYSTERE1:28:431:28:433:44 16.144sen949UCCLE
10.563DE GREEF BENJAMIN19BELENJAMBEE1:33:351:33:353:56 15.301esp897KRAAINEM
11.67FRENCKENS AN40BELSPORTIVAMENTE1:34:121:34:123:57 15.201ai1888ANDERLECHT
12.1231HACKENS YANNICK51BELERTK1:34:261:34:263:58 15.163ve2883EUPEN
13.583VAN RAEMDONCK GILLES55BELRIWARIWA1:34:361:34:363:58 15.144ve2880LASNE
14.108BEUGNIES DAVID38BEL1:35:291:35:294:01 14.995sen869FONTAINE-VALMONT
15.166MERCHIE FRÉDÉRIC52BELCSFMYSTERE1:35:471:35:474:01 14.955ve2863BEERSEL
16.819FPIRSON FLORENCE49BELRIWA1:36:481:36:484:04 14.792ai1851GENVAL
17.983CULLOP PAUL60BELENJAMBEE1:36:511:36:514:04 14.782ve3848BRUXELLES
18.1111HANF ALAIN40BELSCBTRI1:36:551:36:554:04 14.773ve1845BÜTGENBACH
19.1132VASSEN GERD52BELSCBTRI1:36:571:36:574:04 14.776ve2842WEYWERTZ
20.66ROSSIGNOL OLIVIER51BELSPORTIVAMENTE1:36:581:36:584:04 14.767ve2840ANDERLECHT
21.620SCHOONJANS MICHEL48BELMYSTERE1:37:381:37:384:06 14.664ve1831UCCLE
22.1031DAVID JOST JOST32BEL1:37:541:37:544:07 14.626sen826MÜRRINGEN
23.1110DENDAL DIDIER58BEL1:39:121:39:124:10 14.438ve2811LIÈGE
24.612CHARLES CHRISTOPHE45BELCSFMYSTERE1:39:171:39:174:10 14.425ve1808FOREST
25.17FDESILLE NICOLE54BELRIWAJTP BLANCS GILE1:39:401:39:404:11 14.371ai2802LA HULPE
26.805MATHELART JULIEN35BEL1:40:041:40:044:12 14.317sen796HUIZINGEN
27.178KLEPPER JULIEN30BELRIWARIWA1:41:211:41:214:15 14.138sen781BIERGES
28.1208FANDRES GABY49BELSCBSC BÜTGENBACH1:41:251:41:254:16 14.123ai1778NIDRUM
29.199ALAIME SEBASTIEN49BEL1:41:511:41:514:17 14.066ve1772LIMAL
30.1067GALLO CHRISTOPH32BELAC EIFEL1:42:361:42:364:18 13.959sen763ST.VITH
30.1086HILGER-SCHÜTZ JEROME46BELHFAC EIFEL1:42:361:42:364:18 13.957ve1763SANKT VITH
32.1266MUNAUT JEREMY44BELRCNAMUR1:43:011:43:014:20 13.908ve1754TOHOGNE
33.24MOUCHET STÉPHANE47BELACCOJACO1:43:281:43:284:21 13.849ve1747LOMPRET
34.654KIPS DAVID38BELRCNAMUR1:43:411:43:414:21 13.8110sen743GEMBLOUX
35.1015BRODEL MARTIN42BEL1:44:201:44:204:23 13.7210ve1735EUPEN
36.390FGÉRARDIN BÉATRICE51FRAJACO1:45:141:45:144:25 13.612ai2725CHARLEVILLE-MÉZIÈRES
37.404TILBURGS FRANK54BELAVN1:45:441:45:444:26 13.549ve2718MEER
38.626LAMBERT CARL58BELGAG1:45:531:45:534:27 13.5210ve2714GRAND-MANIL
39.1070FDRIES SABINE45BELSCB1:46:211:46:214:28 13.464ai1707MALMEDY
40.975LÉONARD MARC52BELFCHA1:47:011:47:014:30 13.3811ve2699MOXHE
41.1257FGOFFART ELLEN31BELSCBÜTG1:47:231:47:234:31 13.331dam694BÜTGENBACH/BUTGENBACH
42.949DOUGOUD STÉPHANE58FRACFSMYSTERE1:47:311:47:314:31 13.3212ve2690FOREST
43.789FCORDIER CHRISTINE55BEL1:47:441:47:444:31 13.293ai2686JUPRELLE
44.1025FNICOLE SCHNEIDER NICOLE29BEL1:47:451:47:454:31 13.292dam683DIETIKON
45.302FMUNAUT CARINE58BELSERATHSERAING ATHLÉTI1:48:091:48:094:32 13.244ai2677LIMONT
46.543LAFORGE FREDERIC46BELWACOWACO1:48:111:48:114:33 13.2311ve1675HANEFFE
47.122SCHALKWIJK BENOIT61BELFLEUTRAVEL2RUN1:48:421:48:424:34 13.173ve3668WANFERCEE BAULET
48.27CANIVET ROLAND74BELBOUFFIOLS1:49:061:49:064:35 13.121ve4662NALINNES
49.425DE GRAVE OLIVIER56BELCSFMYSTERE1:49:081:49:084:35 13.1213ve2659UCCLE
50.1170FMÜLLER ANNA27BEL1:50:011:50:014:37 13.013dam649ST.VITH
51.1259FBORN MARGOT61BELAC EIFEL1:50:031:50:034:37 13.011ai3647SCHÖNBERG
52.153PALATE FABIAN51BEL1:50:341:50:344:39 12.9514ve2640OPHAIN
53.904SULEAU THOMAS33BELMJ SPORT1:50:491:50:494:39 12.9211sen635VERLAINE
54.623PISCART PIERRE61BELMOHAFORESTIERE1:51:101:51:104:40 12.884ve3630OBOURG
55.1202WEYNAND JÉRÔME39BEL1:52:261:52:264:43 12.7312sen617NIDRUM
56.984BLONDEAUX YANNICK45BEL1:52:311:52:314:43 12.7212ve1614THY-LE-CHATEAU
57.815DE PRINS JEAN-FRANÇOIS23BELRIWA1:54:171:54:174:48 12.5313sen597GENVAL
58.1145FAUTMANNS FANNY36BEL1:55:091:55:094:50 12.434dam587WEGNEZ
59.513DUFAUX RAPHAEL54BEL1:55:161:55:164:50 12.4215ve2584FLOREFFE
60.1062FKESSLER STEPHANIE37BEL1:56:281:56:284:53 12.295dam572BÜLLINGEN
61.1153FSCHOMMERS SANDRA37BEL1:56:301:56:304:53 12.296dam569BULLINGEN
62.357FERAUCHE JEAN-MARIE72BELUAC1:57:081:57:084:55 12.222ve4562LES BONS VILLERS
63.725FTROUPIN CECILE47BELJC HSH1:57:281:57:284:56 12.195ai1556GERPINNES
64.152PAGE THIBAUT40BELJE COURS A INCO1:57:361:57:364:56 12.1813ve1553INCOURT
65.880FGILAIN MORGAN37BELRCNAMUR1:58:261:58:264:58 12.097dam544JAMBES
66.395FOHAL JEAN-LUC56BELETCHIEVRES1:59:091:59:095:00 12.0216ve2536MESLIN-L'EVÊQUE
67.841SALVATO DOMENICO58ITACSFMYSTERE1:59:291:59:295:01 11.9817ve2531BRUXELLES
68.640JUNGBLUTH RAYMOND71BEL1:59:431:59:435:02 11.963ve4527WELKENRAEDT
69.885BLAMPAIN RONALD40BELRCNAMUR2:00:372:00:375:04 11.8714ve1517NAMUR
70.695DE DAPPER DAVID48BELCSFMYSTERE2:00:412:00:415:04 11.8615ve1514FOREST
71.1160DANIEL LANGER38BEL2:01:422:01:425:07 11.7614sen504BÜTGENBACH
71.1243FREUSCH NATASCHA37BEL2:01:422:01:425:07 11.768dam504BÜLLINGEN
73.808FCHABEAU VINCIANE60BELANTILOB2:01:472:01:475:07 11.762ai3499COURT-SAINT-ETIENNE
74.83PEETERS QUENTIN42BELSPTWAVRE2:01:532:01:535:07 11.7516ve1495LIMAL
75.209FDA CRUZ COELHO KRISTELLE42BEL2:01:552:01:555:07 11.746ai1493HÉRON
75.136FHAELTERMAN FLORENCE42BELSPTWAVRE2:01:552:01:555:07 11.746ai1493LIMAL
77.694FBAIJOT REGINE50BELJCCS2:02:132:02:135:08 11.725ai2486HOUDREMONT
78.839POUCET BENOIT56BELJACO2:02:542:02:545:10 11.6518ve2478SELOIGNES
79.296DESSEILLE ERNEST67BELRCNAMUR2:03:042:03:045:10 11.635ve3474WÉPION
80.322THONON OLIVIER49BEL2:03:192:03:195:11 11.6117ve1470NEUPRÉ
81.737VROMMAN THIERRY60BELSPTWAVRE2:03:292:03:295:11 11.596ve3466DION-VALMONT
82.124LE CHARLIER BAUDOUIN71BEL2:06:382:06:385:19 11.314ve4440NAMUR
83.850PENSEZ PIERRE58BELFORESTIERE2:06:432:06:435:19 11.3019ve2437MONS
84.194AUBERT SERGE66BELCHUDONDORGANES2:07:012:07:015:20 11.277ve3432GERPINNES
85.449MARCHAL PATRICK60BELGAG2:07:222:07:225:21 11.248ve3428GEMBLOUX
86.1073FCREMER ESTHER43BELLAC EUPEN2:08:282:08:285:24 11.148ai1417XXXX
86.1186FFRANSSEN GEORGETTE61BELLACE2:08:282:08:285:24 11.143ai3417EUPEN
86.1267TUBEECKX FONS69BELLACLAC EUPEN2:08:282:08:285:24 11.149ve3417EUPEN
89.925SPITALERI MARIO62ITACIAO ITALIA2:08:312:08:315:24 11.1410ve3409LA HESTRE
90.1244FFEY CELINE23BELTEAM SOMJA2:09:162:09:165:26 11.089dam402WELKENRAEDT
91.188FVANDRIESSCHE CAROLINE39BELRCABWNAC2:09:252:09:255:26 11.0610dam398THUILLIES
92.141DE GREEF JÉRÉMY19BEL2:10:072:10:075:28 11.002esp391KRAAINEM
93.184FHAUTIER CATHERINE33BELRCNAMUR2:10:162:10:165:28 10.9911dam388BOIS-DE-VILLERS
94.621DEWEZ ALEX65BEL2:12:582:12:585:35 10.7711ve3365ERPENT
95.439DEWEZ QUENTIN34BEL2:13:002:13:005:35 10.7615sen363SORINNE-LA-LONGUE
96.696LECLEF SEBASTIEN41BELCSFMYSTERE2:14:042:14:045:38 10.6818ve1353FOREST
97.924GENICOT PASCAL59BELHACFOULÉES DU PLAI2:14:122:14:125:38 10.6720ve2350HERON
98.1162FEY PHILIPPE53BEL2:15:142:15:145:41 10.5921ve2340WELKENRAEDT
99.881FHOURMAN GWENDOLINE54BELENJAMBEE2:15:212:15:215:41 10.586ai2337TERVUREN
100.383MAGOTTE OLIVIER49BELJAMES2:17:352:17:355:46 10.4119ve1319OTTIGNIES
101.314DE BOCK PHILIP49BELJAMES2:17:372:17:375:47 10.4020ve1317OTTIGNIES
102.232GARCIA FRANÇOIS-DAVID45BEL2:18:042:18:045:48 10.3721ve1311LONZÉE
103.812BATISTIC PATRICK57BELRONVAU2:19:192:19:195:51 10.2822ve2300NALINNES
104.786CORBIAUX BENJAMIN36BELRCNAMUR2:19:202:19:205:51 10.2816sen298BOIS-DE-VILLERS
105.1197DELATTE OLIVIER57BELCSF MYSTERE2:19:372:19:375:52 10.2523ve2293BRUXELLES
106.538PAULISSEN RICHARD54BEL2:19:442:19:445:52 10.2524ve2290WANZE
107.1225FABRY LÉON66BEL2:20:322:20:325:54 10.1912ve3283WELKENRAEDT
108.22DE MASI GIANNI68ITAFLEU2:21:402:21:405:57 10.1113ve3273ROSELIES
109.356SAUCIN LUC60BELRRTCHATELET2:22:262:22:265:59 10.0514ve3265CHÂTELET
110.713DUSSART JEAN-PIERRE72BELUAC2:22:302:22:305:59 10.055ve4262CHATELINEAU
111.10FHERCOT MARIE-ASTRID64BELRRTCHATELET2:22:332:22:335:59 10.044ai3259CHÂTELET
112.932FVASCONCELLOS CLAUDIA62BELRCBRCB2:23:062:23:066:00 10.005ai3254UCCLE
113.664FDROMELET BÉRENGÈRE53BELSPTWAVRE2:23:062:23:066:00 10.007ai2251WAVRE
114.575FVANWEDDINGEN ANNE58BELCSFMYSTERE2:23:082:23:086:00 10.008ai2249ANDERLECHT
115.142FROMAIN ELO32BELHRC2:24:062:24:066:03 9.9412dam240IXELLES
116.1059DESQUESNES VINCENT49BELRCNAMUR2:24:172:24:176:03 9.9222ve1236SAINT-SERVAIS
117.1136NAZÉ OLIVIER50BEL2:24:362:24:366:04 9.9025ve2232VEDRIN
118.191GENDARME PHILIPPE56BELRCNAMUR2:25:182:25:186:06 9.8526ve2225VEDRIN
119.200FCORNET ANNE55BELGAG2:28:072:28:076:13 9.679ai2205JEMEPPE-SUR-SAMBRE
120.172SEPULCHRE MICHAËL65BEL2:28:522:28:526:15 9.6215ve3197RÊVES
121.680FDUPLAT ANNE44BELRCNAMUR2:29:582:29:586:18 9.559ai1188NAMUR
122.391FVAUSE FABIENNE56BELRCNAMUR2:30:182:30:186:18 9.5310ai2183MALONNE
123.76FMORRIS NICOLA-ELIZABETH61BELENJAMBEE2:30:292:30:296:19 9.516ai3180BRUXELLES
124.177HIGUET PI57BEL2:30:312:30:316:19 9.5127ve2177BEAURAING
125.61FKETELE CORALIE27BELFLEUGAG2:34:232:34:236:29 9.2713dam151LONZÉE
126.1076FPEIKER JUDITH39DEUSONNTAGSLÄUFER2:35:052:35:056:30 9.2314dam144OLZHEIM
127.174FBAWIN BRIGITTE68BELJAMES2:35:422:35:426:32 9.207ai3138BOUSVAL
128.493MOISE PATRICK61BELRCNAMU2:37:372:37:376:37 9.0816ve3124JAMBES
129.144CORBIAUX CHRISTOPHE42BELRCNAMUR2:37:542:37:546:38 9.0723ve1121FLAWINNE
130.1183FHERBRAND MIREILLE47BEL2:39:172:39:176:41 8.9910ai1110LUXEMBOURG
131.1054DELCOUR JÉRÔME34BEL2:39:222:39:226:41 8.9817sen107HOSCHEIDT-DICKT
132.430DUMONT ALAIN61BELRCNAMUR2:43:202:43:206:51 8.7617ve381JAMBES
133.974LESOIL PHILIPPE54BELENJAMBEE2:44:122:44:126:53 8.7228ve274BRUXELLES
134.258PINON WILLIAM60BELENJAMBEE2:45:492:45:496:57 8.6318ve363KRAAINEM
135.745HARDMAN WILLY60BELENJAMBEE2:46:292:46:296:59 8.6019ve356WOLUWÉ-SAINT-PIERRE
136.8ANTOINE ALAIN60BELRCNAMUR2:49:482:49:487:07 8.4320ve335TEMPLOUX
137.148FVAESSEN GHISLAINE58BELENJAMBEE2:49:562:49:567:08 8.4211ai232KRAAINEM
138.707NEMANN BRUNO39BELRCNAMUR2:50:092:50:097:08 8.4118sen29WARTET
139.971VANHEES JEAN-LOUIS68BEL2:50:222:50:227:09 8.4021ve325PERWEZ
DNF: abandon; DSQ: disqualifié; Vitesse en km/h
Page: [1]